• Join FlightAware (Why Join?)
  • Login
  • US Flag 
12:46AM EDT


 

Airport Tracker/Info


-or-


 

Live Flight TrackerFlight Track Log ✈ N589H ✈ 05-Mar-2014 ✈ KVRB - CYUL

Flight Track Log - Related Links

Times and Time Zones

All times are in EST time to prevent confusion due to time zone crossing. See the N589H flight status page for this flight to view local times or setup timezone preferences in your user account.

Time Position Orientation Groundspeed Altitude Reporting Facility
EST Latitude Longitude Course Direction KTS MPH feet Rate Location/Type
06:02PM 27.6497 -80.3922 41° Northeast 358 412 800  Level Miami Center
06:03PM 27.6717 -80.3483 61° Northeast 240 276 1,900 1,020 Climbing Miami Center
06:04PM 27.6836 -80.2831 78° East 206 237 2,900 1,440 Climbing Miami Center
06:05PM 28.0788 -79.9712 41° Northeast  Level FlightAware Approximate
06:05PM 27.7242 -80.2442 40° Northeast 194 223 4,800  Level Miami Center
06:06PM 28.1441 -79.8892 41° Northeast  Level FlightAware Approximate
06:06PM 27.7797 -80.1897 41° Northeast 215 247 7,000  Level Miami Center
06:07PM 28.2182 -79.8152 41° Northeast  Level FlightAware Approximate
06:07PM 27.8289 -80.1417 41° Northeast 238 274 9,100  Level Miami Center
06:08PM 27.8781 -80.0939 41° Northeast 233 268 11,100 1,800 Climbing Miami Center
06:09PM 27.9292 -80.0436 41° Northeast 238 274 12,700 1,500 Climbing Miami Center
06:10PM 27.9739 -80.0025 39° Northeast 358 412 14,200 1,800 Climbing Miami Center
06:11PM 28.0522 -79.9600 26° Northeast 328 377 16,300 1,800 Climbing Miami Center
06:12PM 28.1214 -79.9408 14° North 272 313 17,900 1,500 Climbing Miami Center
06:13PM 28.1992 -79.9144 17° North 267 307 19,400 1,500 Climbing Miami Center
06:14PM 28.2769 -79.8883 16° North 281 323 20,900 1,500 Climbing Miami Center
06:15PM 28.3569 -79.8622 16° North 286 329 22,400 1,320 Climbing Miami Center
06:16PM 28.4431 -79.8361 15° North 297 342 23,600 1,200 Climbing Miami Center
06:17PM 28.5250 -79.8028 20° North 304 350 24,800 1,200 Climbing Miami Center
06:18PM 28.6111 -79.7744 16° North 309 356 26,000 1,080 Climbing Miami Center
06:19PM 28.6975 -79.7436 17° North 309 356 27,000 1,020 Climbing Miami Center
06:20PM 28.7814 -79.7103 19° North 309 356 28,100 1,080 Climbing Miami Center
06:21PM 28.8717 -79.6842 14° North 315 362 29,200 960 Climbing Miami Center
06:22PM 28.9539 -79.6458 22° Northeast 315 362 30,100 840 Climbing Miami Center
06:23PM 29.0442 -79.6150 17° North 321 369 30,900 900 Climbing Miami Center
06:24PM 29.1325 -79.5839 17° North 327 376 31,900 840 Climbing Miami Center
06:25PM 29.2228 -79.5481 19° North 327 376 32,600 660 Climbing Miami Center
06:26PM 29.3150 -79.5194 15° North 327 376 33,300 780 Climbing Miami Center
06:27PM 29.4056 -79.4833 19° North 337 388 34,200 840 Climbing Miami Center
06:28PM 29.4917 -79.4428 22° Northeast 337 388 35,000 360 Climbing Miami Center
06:29PM 29.5922 -79.4164 13° North 343 395 35,000  Level Miami Center
06:30PM 29.6908 -79.3831 16° North 354 407 35,000  Level Miami Center
06:33PM 30.0697 -79.2278 20° North 409 471 35,000  Level Jacksonville Center
06:34PM 30.1814 -79.1900 16° North 409 471 35,000  Level Jacksonville Center
06:35PM 30.2908 -79.1497 18° North 404 465 35,000  Level Jacksonville Center
06:36PM 30.3961 -79.1094 18° North 398 458 35,000  Level Jacksonville Center
06:37PM 30.5056 -79.0664 19° North 404 465 35,000  Level Jacksonville Center
06:38PM 30.6211 -79.0256 17° North 404 465 35,000  Level Jacksonville Center
06:39PM 30.7222 -78.9828 20° North 404 465 35,000  Level Jacksonville Center
06:40PM 30.8317 -78.9419 18° North 399 459 35,100  Climbing Jacksonville Center
06:41PM 30.9389 -78.9036 17° North 399 459 35,000 -60 Descending Jacksonville Center
06:42PM 31.0583 -78.8550 19° North 403 464 35,000  Level Jacksonville Center
06:43PM 31.1658 -78.8164 17° North 403 464 35,000  Level Jacksonville Center
06:44PM 31.2731 -78.7753 18° North 395 455 35,000  Level Jacksonville Center
06:45PM 31.3761 -78.7392 17° North 390 449 35,000  Level Jacksonville Center
06:46PM 31.4833 -78.6928 20° North 400 460 35,000  Level Jacksonville Center
06:47PM 31.5883 -78.6539 18° North 391 450 35,000  Level Jacksonville Center
06:48PM 31.6894 -78.6153 18° North 391 450 35,000  Level Jacksonville Center
06:49PM 31.7944 -78.5736 19° North 391 450 35,000  Level Jacksonville Center
06:50PM 31.8994 -78.5297 20° North 397 457 35,000  Level Jacksonville Center
06:51PM 32.0064 -78.4878 18° North 391 450 35,000  Level Jacksonville Center
06:52PM 32.1117 -78.4486 17° North 391 450 35,000  Level Jacksonville Center
06:53PM 32.2167 -78.4089 18° North 397 457 35,000  Level Jacksonville Center
06:54PM 32.3236 -78.3644 19° North 397 457 35,000  Level Jacksonville Center
06:55PM 32.4264 -78.3200 20° North 397 457 35,000  Level Jacksonville Center
06:56PM 32.5333 -78.2800 18° North 397 457 35,000  Level Jacksonville Center
06:57PM 32.6383 -78.2378 19° North 397 457 35,000  Level Jacksonville Center
06:58PM 32.7453 -78.1953 18° North 397 457 35,000  Level Jacksonville Center
06:59PM 32.8522 -78.1550 18° North 397 457 35,000  Level Jacksonville Center
07:01PM 33.0383 -78.0781 19° North 413 475 35,000  Level Washington Center
07:02PM 33.1456 -78.0342 19° North 406 467 35,000  Level Washington Center
07:03PM 33.2508 -77.9925 18° North 406 467 35,000  Level Washington Center
07:04PM 33.3558 -77.9483 19° North 401 461 35,000  Level Washington Center
07:05PM 33.4631 -77.9067 18° North 401 461 35,000  Level Washington Center
07:06PM 33.5703 -77.8622 19° North 401 461 35,000  Level Washington Center
07:07PM 33.6775 -77.8178 19° North 401 461 35,000  Level Washington Center
07:08PM 33.7847 -77.7756 18° North 406 467 35,000  Level Washington Center
07:09PM 33.8919 -77.7283 20° North 406 467 35,000  Level Washington Center
07:10PM 34.0033 -77.6861 17° North 406 467 35,000  Level Washington Center
07:11PM 34.1231 -77.6392 18° North 406 467 35,000  Level Washington Center
07:12PM 34.2281 -77.5964 19° North 406 467 35,000  Level Washington Center
07:13PM 34.3372 -77.5489 20° North 406 467 35,000  Level Washington Center
07:14PM 34.4425 -77.5058 19° North 406 467 35,000  Level Washington Center
07:15PM 34.5494 -77.4631 18° North 406 467 35,000  Level Washington Center
07:16PM 34.6547 -77.4075 23° Northeast 406 467 35,000  Level Washington Center
07:17PM 34.7597 -77.3467 25° Northeast 411 473 35,000  Level Washington Center
07:18PM 34.8650 -77.2856 25° Northeast 416 479 35,000  Level Washington Center
07:19PM 34.9703 -77.2294 24° Northeast 411 473 35,000  Level Washington Center
07:20PM 35.0753 -77.1706 25° Northeast 411 473 35,000  Level Washington Center
07:21PM 35.1700 -77.1167 25° Northeast 411 473 35,000  Level Washington Center
07:22PM 35.2769 -77.0550 25° Northeast 411 473 35,000  Level Washington Center
07:23PM 35.3819 -76.9958 25° Northeast 411 473 35,000  Level Washington Center
07:24PM 35.4869 -76.9389 24° Northeast 411 473 35,000  Level Washington Center
07:25PM 35.5900 -76.8794 25° Northeast 405 466 35,000  Level Washington Center
07:26PM 35.6906 -76.8247 24° Northeast 399 459 35,000  Level Washington Center
07:27PM 35.7914 -76.7622 27° Northeast 399 459 35,000  Level Washington Center
07:28PM 35.8922 -76.7047 25° Northeast 399 459 35,000  Level Washington Center
07:29PM 35.9950 -76.6472 24° Northeast 399 459 35,000  Level Washington Center
07:30PM 36.0936 -76.5894 25° Northeast 399 459 35,000  Level Washington Center
07:31PM 36.1919 -76.5314 25° Northeast 399 459 35,000  Level Washington Center
07:32PM 36.2925 -76.4733 25° Northeast 399 459 35,000  Level Washington Center
07:33PM 36.3931 -76.4150 25° Northeast 399 459 35,000  Level Washington Center
07:34PM 36.4936 -76.3567 25° Northeast 399 459 35,000  Level Washington Center
07:35PM 36.5942 -76.2981 25° Northeast 399 459 35,000  Level Washington Center
07:36PM 36.6947 -76.2422 24° Northeast 399 459 35,000  Level Washington Center
07:37PM 36.8033 -76.1731 27° Northeast 394 453 35,000  Level Washington Center
07:38PM 36.9039 -76.1139 25° Northeast 394 453 35,000  Level Washington Center
07:39PM 37.0083 -76.0550 24° Northeast 399 459 35,000  Level Washington Center
07:40PM 37.1089 -75.9956 25° Northeast 399 459 35,000  Level Washington Center
07:41PM 37.2111 -75.9336 26° Northeast 399 459 35,000  Level Washington Center
07:42PM 37.3114 -75.8894 19° North 399 459 35,000  Level Washington Center
07:43PM 37.4178 -75.8639 11° North 387 445 35,000  Level Washington Center
07:44PM 37.5222 -75.8300 14° North 382 440 35,000  Level Washington Center
07:45PM 37.6244 -75.7989 14° North 377 434 35,000  Level Washington Center
07:46PM 37.7308 -75.7650 14° North 377 434 35,000  Level Washington Center
07:47PM 37.8353 -75.7311 14° North 377 434 35,000  Level Washington Center
07:48PM 37.9394 -75.6969 15° North 377 434 35,000  Level Washington Center
07:49PM 38.0439 -75.6656 13° North 377 434 35,000  Level Washington Center
07:50PM 38.1336 -75.6286 18° North 369 425 35,000  Level Washington Center
07:51PM 38.2378 -75.5969 13° North 376 433 35,000  Level Washington Center
07:52PM 38.3442 -75.5653 13° North 382 440 35,000  Level Washington Center
07:53PM 38.4464 -75.5308 15° North 382 440 35,000  Level Washington Center
07:54PM 38.5525 -75.4961 14° North 382 440 35,000  Level Washington Center
07:55PM 38.6547 -75.4586 16° North 377 434 35,000  Level Washington Center
07:56PM 38.7589 -75.4267 13° North 377 434 35,000  Level Washington Center
07:57PM 38.8611 -75.3917 15° North 372 428 35,000  Level Washington Center
07:58PM 38.9653 -75.3542 16° North 377 434 35,000  Level Washington Center
07:59PM 39.0692 -75.3161 16° North 377 434 35,000  Level Washington Center
08:00PM 39.1733 -75.2864 12° North 377 434 35,000  Level Washington Center
08:01PM 39.2797 -75.2483 15° North 372 428 35,000  Level Washington Center
08:02PM 39.3794 -75.2131 15° North 377 434 35,000  Level Washington Center
08:03PM 39.4836 -75.1775 15° North 377 434 35,000  Level Washington Center
08:04PM 39.5878 -75.1419 15° North 377 434 35,000  Level Washington Center
08:05PM 39.7000 -75.1033 15° North 377 434 35,000  Level Washington Center
08:07PM 39.8397 -75.0558 15° North 394 453 35,000  Level New York Center
08:08PM 39.9411 -75.0189 16° North 382 440 35,000  Level New York Center
08:09PM 40.0447 -74.9819 15° North 382 440 35,000  Level New York Center
08:10PM 40.1458 -74.9472 15° North 382 440 35,000  Level New York Center
08:11PM 40.2472 -74.9097 16° North 382 440 35,000  Level New York Center
08:12PM 40.3500 -74.8889 North 382 440 35,000  Level New York Center
08:13PM 40.4550 -74.8678 North 376 433 35,000  Level New York Center
08:14PM 40.5581 -74.8439 10° North 376 433 35,000  Level New York Center
08:16PM 40.8092 -74.7928 North 385 443 35,000  Level Boston Center
08:17PM 40.9122 -74.7719 North 377 434 35,000  Level Boston Center
08:18PM 41.0125 -74.7511 North 376 433 35,000  Level Boston Center
08:19PM 41.1164 -74.7286 North 369 425 35,000  Level Boston Center
08:20PM 41.2194 -74.7064 North 375 432 35,000  Level Boston Center
08:21PM 41.3164 -74.6867 North 368 423 35,000  Level Boston Center
08:22PM 41.4369 -74.6600 North 367 422 35,000  Level Boston Center
08:23PM 41.5342 -74.6381 10° North 369 425 35,000  Level Boston Center
08:24PM 41.6333 -74.6167 North 365 420 35,000  Level Boston Center
08:25PM 41.7328 -74.5953 North 362 417 35,000  Level Boston Center
08:26PM 41.8361 -74.5744 North 363 418 35,000  Level Boston Center
08:27PM 41.9356 -74.5344 17° North 378 435 35,000  Level Boston Center
08:28PM 42.0344 -74.4992 15° North 389 448 35,000  Level Boston Center
08:29PM 42.1322 -74.4681 13° North 360 414 35,000  Level Boston Center
08:30PM 42.2322 -74.4344 14° North 368 423 35,000  Level Boston Center
08:31PM 42.3411 -74.3953 15° North 368 423 35,000  Level Boston Center
08:32PM 42.4406 -74.3614 14° North 368 423 35,000  Level Boston Center
08:33PM 42.5408 -74.3264 14° North 369 425 35,000  Level Boston Center
08:34PM 42.6478 -74.2875 15° North 369 425 35,000  Level Boston Center
08:35PM 42.7456 -74.2528 15° North 366 421 35,000  Level Boston Center
08:36PM 42.8425 -74.2161 15° North 365 420 35,000  Level Boston Center
08:37PM 42.9431 -74.1814 14° North 371 427 35,000  Level Boston Center
08:38PM 43.0422 -74.1458 15° North 371 427 35,000  Level Boston Center
08:39PM 43.1392 -74.1097 15° North 366 421 35,000  Level Boston Center
08:40PM 43.2367 -74.0728 15° North 367 422 35,000  Level Boston Center
08:41PM 43.3342 -74.0372 15° North 366 421 35,000  Level Boston Center
08:42PM 43.4472 -73.9958 15° North 368 423 35,000 -480 Level Boston Center
08:43PM 43.5411 -73.9214 30° Northeast 394 453 34,100 -1,020 Descending Boston Center
08:44PM 43.6372 -73.8358 33° Northeast 411 473 33,000 -600 Descending Boston Center
08:45PM 43.7325 -73.7536 32° Northeast 393 452 33,000  Level Boston Center
08:46PM 43.8172 -73.6775 33° Northeast 386 444 33,000 -600 Level Boston Center
08:47PM 43.9058 -73.5875 36° Northeast 393 452 31,900 -1,200 Descending Boston Center
08:48PM 44.0031 -73.5675 North 362 417 30,600 -1,560 Descending Boston Center
08:49PM 44.0964 -73.5811 354° North 339 390 28,800 -2,220 Descending Boston Center
08:50PM 44.1883 -73.5828 359° North 335 386 26,100 -2,100 Descending Boston Center
08:51PM 44.2775 -73.5833 360° North 327 376 24,600 -1,740 Descending Boston Center
08:52PM 44.3658 -73.5817 North 320 368 22,600 -1,980 Descending Boston Center
08:53PM 44.4739 -73.5786 North 322 371 20,600 -1,800 Descending Boston Center
08:54PM 44.5597 -73.5767 North 313 360 19,000 -1,260 Descending Boston Center
08:56PM 44.6431 -73.5758 360° North 299 344 18,100 -1,260 Descending Boston Center
08:57PM 44.7236 -73.5736 North 290 334 16,500 -1,500 Descending Boston Center
08:58PM 44.8014 -73.5725 North 281 323 15,100 -1,440 Descending Boston Center
08:59PM 44.8761 -73.5714 North 270 311 13,600 -1,440 Descending Boston Center
09:00PM 44.9503 -73.5700 North 266 306 12,200 -1,260 Descending Boston Center
09:01PM 45.0333 -73.5500 10° North 260 299 10,900 -1,080 Descending Montreal Center
09:02PM 45.1000 -73.5500 360° North 260 299 9,900 -1,080 Descending Montreal Center
09:03PM 45.1833 -73.5667 352° North 250 288 8,800 -1,020 Descending Montreal Center
09:04PM 45.2500 -73.5667 360° North 250 288 7,900 -1,380 Descending Montreal Center
09:05PM 45.3167 -73.5833 350° North 240 276 6,100 -1,860 Descending Montreal Center
09:06PM 45.3833 -73.5833 360° North 230 265 4,200 -1,080 Descending Montreal Center
09:07PM 45.4333 -73.5500 25° Northeast 200 230 4,000 -120 Descending Montreal Center
09:08PM 45.4833 -73.5500 360° North 200 230 4,000 -360 Level Montreal Center
09:09PM 45.5333 -73.5833 335° Northwest 160 184 3,300 -1,200 Descending Montreal Center
09:10PM 45.5167 -73.6167 234° Southwest 140 161 1,600 -1,200 Descending Montreal Center
09:11PM 45.5000 -73.6667 245° Southwest 120 138 1,000 -720 Descending Montreal Center
09:12PM 45.4667 -73.7000 215° Southwest 130 150 200 -840 Descending Montreal Center